Time;durP1;ratioP1;P1;durP2;ratioP2;P2;SDS_P1;SDS_P2;PMS_P1;PMS_P2;Temp;Humidity;BMP_temperature;BMP_pressure;BME280_temperature;BME280_humidity;BME280_pressure;Samples;Min_cycle;Max_cycle;Signal;HPM_P1;HPM_P2
2021/12/26 00:01:09;;;;;;;;;;;;;;;13.40;86.88;99787.88;5032741;28;19999;-54
2021/12/26 00:03:37;;;;;;;;;;;;;;;13.37;86.80;99777.28;5032683;28;20019;-55
2021/12/26 00:06:06;;;;;;;;;;;;;;;13.31;86.82;99781.34;5032930;28;20016;-55
2021/12/26 00:08:36;;;;;;;;;;;;;;;13.32;86.80;99802.63;5032169;28;19968;-55
2021/12/26 00:11:03;;;;;;;;;;;;;;;13.31;86.85;99794.56;5032392;28;20460;-54
2021/12/26 00:13:31;;;;;;;;;;;;;;;13.32;86.92;99797.03;5032215;28;20020;-53
2021/12/26 00:15:58;;;;;;;;;;;;;;;13.34;86.94;99800.34;5039921;28;19974;-54
2021/12/26 00:18:25;;;;;;;;;;;;;;;13.35;86.94;99802.00;5051745;28;19921;-55
2021/12/26 00:20:52;;;;;;;;;;;;;;;13.35;86.70;99804.81;5051992;28;20432;-53
2021/12/26 00:23:18;;;;;;;;;;;;;;;13.30;87.00;99810.56;5034647;28;20019;-54
2021/12/26 00:25:45;;;;;;;;;;;;;;;13.26;86.88;99804.75;5032332;28;20355;-54
2021/12/26 00:28:12;;;;;;;;;;;;;;;13.24;87.10;99797.78;5032099;28;20292;-55
2021/12/26 00:30:39;;;;;;;;;;;;;;;13.20;87.06;99793.94;5032269;28;20020;-55
2021/12/26 00:33:05;;;;;;;;;;;;;;;13.17;87.13;99797.38;5032516;28;20016;-51
2021/12/26 00:35:33;;;;;;;;;;;;;;;13.14;87.32;99800.81;5032364;28;19929;-53
2021/12/26 00:37:59;;;;;;;;;;;;;;;13.13;87.28;99788.78;5032081;28;20393;-54
2021/12/26 00:40:26;;;;;;;;;;;;;;;13.09;87.44;99782.13;5032704;28;20015;-53
2021/12/26 00:42:54;;;;;;;;;;;;;;;13.05;87.47;99773.50;5032398;28;20032;-52
2021/12/26 00:45:21;;;;;;;;;;;;;;;13.04;87.60;99768.22;5037175;28;19932;-53
2021/12/26 00:47:48;;;;;;;;;;;;;;;13.03;87.56;99759.00;5051974;28;19943;-55
2021/12/26 00:50:17;;;;;;;;;;;;;;;13.01;87.62;99758.47;5042872;28;19960;-53
2021/12/26 00:52:44;;;;;;;;;;;;;;;13.00;87.67;99767.22;5032204;28;20007;-54
2021/12/26 00:55:13;;;;;;;;;;;;;;;12.99;87.72;99762.72;5031934;28;20028;-54
2021/12/26 00:57:40;;;;;;;;;;;;;;;12.97;87.85;99757.47;5032702;28;19927;-52
2021/12/26 01:00:08;;;;;;;;;;;;;;;12.96;87.68;99754.97;5031892;28;20436;-52
2021/12/26 01:02:35;;;;;;;;;;;;;;;12.93;87.90;99764.84;5032177;28;19960;-54
2021/12/26 01:05:03;;;;;;;;;;;;;;;12.91;87.95;99753.09;5031735;28;19982;-53
2021/12/26 01:10:12;;;;;;;;;;;;;;;12.93;87.86;99766.81;5055523;28;19921;-55
2021/12/26 01:12:40;;;;;;;;;;;;;;;12.95;87.88;99776.56;5054746;28;20396;-51
2021/12/26 01:15:09;;;;;;;;;;;;;;;12.98;87.95;99775.09;5042827;28;19921;-54
2021/12/26 01:17:40;;;;;;;;;;;;;;;13.00;87.70;99767.22;5075430;28;19920;-55
2021/12/26 01:20:11;;;;;;;;;;;;;;;13.00;87.72;99756.81;5075533;28;20015;-53
2021/12/26 01:22:38;;;;;;;;;;;;;;;13.01;87.65;99757.66;5066274;28;20376;-50
2021/12/26 01:25:06;;;;;;;;;;;;;;;13.00;87.49;99747.59;5055127;28;19963;-49
2021/12/26 01:27:33;;;;;;;;;;;;;;;12.99;87.45;99726.28;5038726;28;19920;-53
2021/12/26 01:30:02;;;;;;;;;;;;;;;12.97;87.54;99718.22;5067277;28;19921;-53
2021/12/26 01:32:29;;;;;;;;;;;;;;;12.97;87.34;99720.19;5035617;28;20388;-54
2021/12/26 01:34:55;;;;;;;;;;;;;;;12.93;87.40;99728.41;5035423;28;19921;-55
2021/12/26 01:37:22;;;;;;;;;;;;;;;12.90;87.30;99745.03;5035163;28;20480;-54
2021/12/26 01:39:49;;;;;;;;;;;;;;;12.87;87.48;99749.28;5034878;28;20052;-51
2021/12/26 01:42:16;;;;;;;;;;;;;;;12.86;87.45;99756.03;5035110;28;20023;-54
2021/12/26 01:44:48;;;;;;;;;;;;;;;12.87;87.50;99756.88;5035122;28;20344;-53
2021/12/26 01:47:15;;;;;;;;;;;;;;;12.87;87.49;99768.91;5040221;28;20329;-53
2021/12/26 01:49:41;;;;;;;;;;;;;;;12.87;87.61;99766.09;5050309;28;19960;-51
2021/12/26 01:52:08;;;;;;;;;;;;;;;12.86;87.64;99770.06;5035072;28;20012;-51
2021/12/26 01:54:47;;;;;;;;;;;;;;;12.89;87.49;99777.84;5034918;28;20349;-54
2021/12/26 01:57:15;;;;;;;;;;;;;;;12.90;87.65;99767.44;5034768;28;20000;-52
2021/12/26 01:59:43;;;;;;;;;;;;;;;12.91;87.58;99772.72;5034731;28;20011;-51
2021/12/26 02:02:10;;;;;;;;;;;;;;;12.93;87.60;99756.44;5034874;28;20008;-52
2021/12/26 02:04:37;;;;;;;;;;;;;;;12.97;87.57;99774.28;5035198;28;19926;-52
2021/12/26 02:07:04;;;;;;;;;;;;;;;13.00;87.57;99778.44;5034468;28;20015;-52
2021/12/26 02:09:31;;;;;;;;;;;;;;;13.04;87.60;99776.66;5034614;28;20023;-49
2021/12/26 02:12:00;;;;;;;;;;;;;;;13.07;87.64;99763.97;5034399;28;19953;-52
2021/12/26 02:14:27;;;;;;;;;;;;;;;13.09;87.50;99770.06;5034378;28;19925;-52
2021/12/26 02:16:54;;;;;;;;;;;;;;;13.13;87.63;99771.09;5049918;28;20011;-52
2021/12/26 02:19:20;;;;;;;;;;;;;;;13.14;87.58;99781.19;5035686;28;20008;-50
2021/12/26 02:24:26;;;;;;;;;;;;;;;13.18;87.64;99790.63;5034504;28;19921;-53
2021/12/26 02:29:40;;;;;;;;;;;;;;;13.19;87.69;99786.66;5050647;28;20031;-50
2021/12/26 02:32:07;;;;;;;;;;;;;;;13.19;87.73;99786.66;5054025;28;19935;-53
2021/12/26 02:34:33;;;;;;;;;;;;;;;13.18;87.88;99785.00;5052608;28;20011;-52
2021/12/26 02:37:00;;;;;;;;;;;;;;;13.19;87.89;99781.06;5050665;28;20028;-53
2021/12/26 02:39:28;;;;;;;;;;;;;;;13.18;87.97;99791.44;5034687;28;19960;-50
2021/12/26 02:41:54;;;;;;;;;;;;;;;13.15;88.10;99780.84;5033822;28;19921;-50
2021/12/26 02:44:21;;;;;;;;;;;;;;;13.11;88.19;99790.22;5033571;28;20020;-48
2021/12/26 02:46:48;;;;;;;;;;;;;;;13.09;88.28;99782.13;5033496;28;19967;-49
2021/12/26 02:49:14;;;;;;;;;;;;;;;13.09;88.23;99792.50;5033715;28;20011;-52
2021/12/26 02:51:41;;;;;;;;;;;;;;;13.09;88.51;99781.28;5033711;28;19925;-49
2021/12/26 02:54:08;;;;;;;;;;;;;;;13.06;88.47;99799.59;5046576;28;20015;-48
2021/12/26 02:56:35;;;;;;;;;;;;;;;13.05;88.60;99809.13;5052993;28;20359;-49
2021/12/26 02:59:01;;;;;;;;;;;;;;;13.04;88.75;99808.31;5047743;28;20011;-53
2021/12/26 03:01:31;;;;;;;;;;;;;;;13.02;88.67;99807.81;5033466;28;20011;-51
2021/12/26 03:03:59;;;;;;;;;;;;;;;13.01;88.75;99803.31;5033463;28;19925;-50
2021/12/26 03:06:36;;;;;;;;;;;;;;;12.93;88.63;99790.06;5033311;28;20448;-54
2021/12/26 03:09:03;;;;;;;;;;;;;;;12.86;88.60;99786.88;5033672;28;20078;-53
2021/12/26 03:11:30;;;;;;;;;;;;;;;12.78;88.79;99793.19;5033203;28;20447;-50
2021/12/26 03:13:57;;;;;;;;;;;;;;;12.73;89.12;99796.13;5033607;28;20009;-49
2021/12/26 03:16:23;;;;;;;;;;;;;;;12.70;89.51;99791.16;5033152;28;20019;-49
2021/12/26 03:18:55;;;;;;;;;;;;;;;12.60;89.38;99778.19;5047537;28;19927;-50
2021/12/26 03:21:21;;;;;;;;;;;;;;;12.54;89.43;99794.25;5053119;28;19955;-49
2021/12/26 03:23:49;;;;;;;;;;;;;;;12.53;89.43;99787.00;5042936;28;19979;-50
2021/12/26 03:26:16;;;;;;;;;;;;;;;12.54;89.63;99799.84;5032762;28;19974;-49
2021/12/26 03:28:42;;;;;;;;;;;;;;;12.51;89.46;99788.44;5033289;28;20473;-51
2021/12/26 03:31:10;;;;;;;;;;;;;;;12.50;89.53;99793.22;5032447;28;20019;-49
2021/12/26 03:33:36;;;;;;;;;;;;;;;12.49;89.57;99799.97;5042391;28;20265;-50
2021/12/26 03:36:03;;;;;;;;;;;;;;;12.48;89.49;99800.31;5052538;28;19968;-50
2021/12/26 03:38:33;;;;;;;;;;;;;;;12.48;89.40;99806.72;5052629;28;20031;-50
2021/12/26 03:40:59;;;;;;;;;;;;;;;12.50;89.55;99810.03;5041956;28;19920;-50
2021/12/26 03:43:26;;;;;;;;;;;;;;;12.51;89.62;99800.50;5032687;28;19967;-51
2021/12/26 03:45:53;;;;;;;;;;;;;;;12.54;89.71;99791.47;5034713;28;20023;-51
2021/12/26 03:48:21;;;;;;;;;;;;;;;12.53;89.66;99784.19;5040547;28;20028;-54
2021/12/26 03:50:48;;;;;;;;;;;;;;;12.54;89.61;99776.63;5032480;28;20019;-53
2021/12/26 03:53:15;;;;;;;;;;;;;;;12.55;89.85;99776.34;5034390;28;19943;-54
2021/12/26 03:55:42;;;;;;;;;;;;;;;12.53;89.73;99755.38;5052329;28;19952;-55
2021/12/26 03:58:09;;;;;;;;;;;;;;;12.50;89.97;99768.03;5052256;28;20015;-53
2021/12/26 04:00:37;;;;;;;;;;;;;;;12.48;90.04;99767.53;5043604;28;20012;-56
2021/12/26 04:03:04;;;;;;;;;;;;;;;12.48;90.19;99769.50;5032823;28;20062;-57
2021/12/26 04:05:31;;;;;;;;;;;;;;;12.44;90.20;99763.66;5032479;28;20012;-54
2021/12/26 04:07:57;;;;;;;;;;;;;;;12.43;90.29;99750.00;5032348;28;20012;-52
2021/12/26 04:10:24;;;;;;;;;;;;;;;12.41;90.58;99741.91;5041692;28;19921;-53
2021/12/26 04:12:53;;;;;;;;;;;;;;;12.40;90.41;99750.63;5052348;28;20007;-55
2021/12/26 04:15:21;;;;;;;;;;;;;;;12.38;90.65;99753.75;5052073;28;20019;-53
2021/12/26 04:17:49;;;;;;;;;;;;;;;12.38;90.74;99750.94;5046113;28;20007;-55
2021/12/26 04:20:15;;;;;;;;;;;;;;;12.37;90.87;99742.84;5032735;28;19921;-54
2021/12/26 04:22:43;;;;;;;;;;;;;;;12.35;91.03;99722.75;5031961;28;20004;-55
2021/12/26 04:25:10;;;;;;;;;;;;;;;12.33;90.83;99729.47;5032090;28;20008;-56
2021/12/26 04:27:37;;;;;;;;;;;;;;;12.34;91.00;99738.69;5031868;28;20015;-57
2021/12/26 04:30:09;;;;;;;;;;;;;;;12.35;91.03;99731.13;5032184;28;20011;-57
2021/12/26 04:32:36;;;;;;;;;;;;;;;12.34;91.11;99733.09;5031762;28;20443;-54
2021/12/26 04:35:03;;;;;;;;;;;;;;;12.35;91.04;99734.75;5032060;28;20040;-55
2021/12/26 04:37:30;;;;;;;;;;;;;;;12.35;90.75;99737.56;5035421;28;19948;-56
2021/12/26 04:39:56;;;;;;;;;;;;;;;12.36;91.04;99736.41;5051483;28;19927;-56
2021/12/26 04:42:24;;;;;;;;;;;;;;;12.36;91.13;99735.59;5039107;28;20016;-54
2021/12/26 04:44:53;;;;;;;;;;;;;;;12.36;91.15;99742.00;5035708;28;20015;-56
2021/12/26 04:47:19;;;;;;;;;;;;;;;12.31;91.14;99739.34;5035680;28;19975;-55
2021/12/26 04:49:46;;;;;;;;;;;;;;;12.31;91.30;99730.94;5035713;28;20357;-53
2021/12/26 04:52:14;;;;;;;;;;;;;;;12.30;91.36;99709.66;5035656;28;20011;-55
2021/12/26 04:54:41;;;;;;;;;;;;;;;12.28;91.39;99711.97;5036180;28;20027;-53
2021/12/26 04:57:08;;;;;;;;;;;;;;;12.28;91.47;99718.38;5035758;28;20008;-54
2021/12/26 04:59:34;;;;;;;;;;;;;;;12.28;91.50;99717.56;5035572;28;20266;-52
2021/12/26 05:02:01;;;;;;;;;;;;;;;12.30;91.48;99716.09;5035285;28;19925;-53
2021/12/26 05:04:28;;;;;;;;;;;;;;;12.30;91.51;99720.84;5035402;28;20428;-53
2021/12/26 05:06:54;;;;;;;;;;;;;;;12.31;91.44;99723.34;5035253;28;19921;-53
2021/12/26 05:09:21;;;;;;;;;;;;;;;12.32;91.57;99726.97;5035323;28;20020;-50
2021/12/26 05:11:48;;;;;;;;;;;;;;;12.33;91.48;99720.22;5036162;28;19990;-53
2021/12/26 05:14:15;;;;;;;;;;;;;;;12.32;91.65;99699.81;5044334;28;20099;-54
2021/12/26 05:16:42;;;;;;;;;;;;;;;12.31;91.78;99694.53;5035573;28;20412;-54
2021/12/26 05:19:08;;;;;;;;;;;;;;;12.30;91.74;99690.06;5052183;28;20003;-53
2021/12/26 05:21:36;;;;;;;;;;;;;;;12.32;91.79;99690.59;5041179;28;20023;-54
2021/12/26 05:24:03;;;;;;;;;;;;;;;12.31;91.87;99688.94;5035081;28;19971;-52
2021/12/26 05:26:29;;;;;;;;;;;;;;;12.31;91.73;99691.75;5034716;28;20020;-54
2021/12/26 05:28:56;;;;;;;;;;;;;;;12.31;91.78;99695.38;5035614;28;20412;-54
2021/12/26 05:31:23;;;;;;;;;;;;;;;12.29;91.74;99678.03;5034851;28;20016;-53
2021/12/26 05:33:49;;;;;;;;;;;;;;;12.26;91.71;99680.63;5034994;28;20395;-53
2021/12/26 05:36:17;;;;;;;;;;;;;;;12.27;91.86;99671.09;5034548;28;20017;-54
2021/12/26 05:38:44;;;;;;;;;;;;;;;12.27;91.79;99671.94;5034993;28;20019;-55
2021/12/26 05:41:11;;;;;;;;;;;;;;;12.29;91.87;99664.03;5034662;28;19924;-54
2021/12/26 05:43:38;;;;;;;;;;;;;;;12.27;91.82;99663.53;5044469;28;20299;-52
2021/12/26 05:46:04;;;;;;;;;;;;;;;12.24;91.81;99666.97;5041430;28;20051;-55
2021/12/26 05:48:31;;;;;;;;;;;;;;;12.19;91.74;99669.03;5034544;28;19979;-54
2021/12/26 05:50:58;;;;;;;;;;;;;;;12.17;91.76;99688.09;5034280;28;20381;-55
2021/12/26 05:53:25;;;;;;;;;;;;;;;12.14;91.88;99678.38;5034742;28;19927;-53
2021/12/26 05:55:52;;;;;;;;;;;;;;;12.08;91.70;99680.44;5034163;28;20357;-54
2021/12/26 05:58:19;;;;;;;;;;;;;;;12.00;91.69;99675.59;5038688;28;20007;-55
2021/12/26 06:00:45;;;;;;;;;;;;;;;11.99;91.85;99667.50;5054128;28;20019;-55
2021/12/26 06:03:12;;;;;;;;;;;;;;;11.94;91.91;99671.25;5038702;28;19967;-54
2021/12/26 06:05:39;;;;;;;;;;;;;;;11.94;91.95;99653.63;5034065;28;20441;-54
2021/12/26 06:08:05;;;;;;;;;;;;;;;11.92;91.87;99653.09;5034537;28;19921;-55
2021/12/26 06:10:32;;;;;;;;;;;;;;;11.88;91.92;99654.88;5034124;28;19925;-55
2021/12/26 06:12:59;;;;;;;;;;;;;;;11.87;91.97;99667.22;5034264;28;20337;-56
2021/12/26 06:15:25;;;;;;;;;;;;;;;11.85;92.01;99665.53;5047862;28;19963;-55
2021/12/26 06:17:52;;;;;;;;;;;;;;;11.85;92.15;99659.09;5053835;28;20023;-56
2021/12/26 06:20:19;;;;;;;;;;;;;;;11.84;92.05;99677.03;5053406;28;20040;-55
2021/12/26 06:22:46;;;;;;;;;;;;;;;11.84;91.87;99669.47;5052392;28;20015;-55
2021/12/26 06:25:13;;;;;;;;;;;;;;;11.85;91.85;99673.91;5034026;28;20433;-55
2021/12/26 06:27:40;;;;;;;;;;;;;;;11.87;91.93;99673.63;5033730;28;19921;-53
2021/12/26 06:30:07;;;;;;;;;;;;;;;11.89;91.80;99671.31;5033866;28;19960;-51
2021/12/26 06:32:34;;;;;;;;;;;;;;;11.89;91.84;99651.75;5033659;28;20108;-54
2021/12/26 06:35:01;;;;;;;;;;;;;;;11.90;91.68;99650.63;5033768;28;20435;-55
2021/12/26 06:37:28;;;;;;;;;;;;;;;11.90;91.69;99661.81;5034584;28;19987;-55
2021/12/26 06:39:55;;;;;;;;;;;;;;;11.92;91.66;99659.50;5034005;28;20340;-55
2021/12/26 06:42:22;;;;;;;;;;;;;;;11.94;91.77;99662.84;5033758;28;19968;-56
2021/12/26 06:44:49;;;;;;;;;;;;;;;11.95;91.73;99658.91;5033635;28;20399;-55
2021/12/26 06:47:17;;;;;;;;;;;;;;;11.99;91.71;99653.50;5032222;28;19921;-56
2021/12/26 06:49:45;;;;;;;;;;;;;;;11.99;91.62;99659.09;5050063;28;20004;-63
2021/12/26 06:52:12;;;;;;;;;;;;;;;11.99;91.61;99659.09;5053428;28;20027;-56
2021/12/26 06:54:40;;;;;;;;;;;;;;;11.99;91.69;99657.13;5036181;28;20011;-57
2021/12/26 06:57:06;;;;;;;;;;;;;;;12.00;91.48;99650.41;5033660;28;19925;-59
2021/12/26 06:59:33;;;;;;;;;;;;;;;12.00;91.72;99633.63;5033198;28;20011;-58
2021/12/26 07:02:00;;;;;;;;;;;;;;;12.03;92.13;99635.81;5033154;28;20012;-55
2021/12/26 07:04:27;;;;;;;;;;;;;;;12.04;92.14;99625.44;5033304;28;19928;-60
2021/12/26 07:06:53;;;;;;;;;;;;;;;12.07;92.09;99622.00;5031309;28;19968;-56
2021/12/26 07:09:20;;;;;;;;;;;;;;;12.06;92.05;99631.53;5033079;28;19964;-56
2021/12/26 07:11:49;;;;;;;;;;;;;;;12.07;92.23;99636.81;5033711;28;19992;-58
2021/12/26 07:14:16;;;;;;;;;;;;;;;12.13;92.37;99628.31;5032920;28;20337;-57
2021/12/26 07:16:43;;;;;;;;;;;;;;;12.12;92.29;99623.84;5032752;28;19979;-57
2021/12/26 07:19:10;;;;;;;;;;;;;;;12.14;92.31;99621.59;5050129;28;20007;-56
2021/12/26 07:21:37;;;;;;;;;;;;;;;12.15;92.45;99617.63;5052905;28;20015;-57
2021/12/26 07:24:04;;;;;;;;;;;;;;;12.18;92.49;99628.22;5052757;28;20007;-57
2021/12/26 07:26:31;;;;;;;;;;;;;;;12.20;92.52;99621.13;5050215;28;19971;-56
2021/12/26 07:28:57;;;;;;;;;;;;;;;12.23;92.61;99616.88;5032716;28;19925;-56
2021/12/26 07:31:25;;;;;;;;;;;;;;;12.24;92.68;99621.31;5032935;28;20020;-56
2021/12/26 07:33:51;;;;;;;;;;;;;;;12.27;92.66;99621.56;5032617;28;19925;-56
2021/12/26 07:36:18;;;;;;;;;;;;;;;12.28;92.80;99602.78;5032543;28;20585;-57
2021/12/26 07:38:45;;;;;;;;;;;;;;;12.30;92.83;99615.28;5032339;28;20345;-57
2021/12/26 07:41:20;;;;;;;;;;;;;;;12.33;92.71;99613.84;5032548;28;20319;-57
2021/12/26 07:43:47;;;;;;;;;;;;;;;12.32;92.74;99601.00;5033251;28;19921;-57
2021/12/26 07:46:16;;;;;;;;;;;;;;;12.32;92.79;99606.59;5032703;28;20032;-57
2021/12/26 07:48:43;;;;;;;;;;;;;;;12.34;92.81;99609.91;5032027;28;19928;-57
2021/12/26 07:51:10;;;;;;;;;;;;;;;12.32;92.61;99613.03;5032340;28;20007;-57
2021/12/26 07:53:36;;;;;;;;;;;;;;;12.34;92.54;99612.69;5041876;28;20333;-57
2021/12/26 07:56:03;;;;;;;;;;;;;;;12.35;92.54;99621.94;5045138;28;19956;-56
2021/12/26 07:58:30;;;;;;;;;;;;;;;12.35;92.51;99614.38;5052316;28;20008;-57
2021/12/26 08:00:59;;;;;;;;;;;;;;;12.37;92.40;99614.03;5048307;28;19921;-57
2021/12/26 08:03:26;;;;;;;;;;;;;;;12.36;92.43;99615.19;5032245;28;20005;-58
2021/12/26 08:05:52;;;;;;;;;;;;;;;12.37;92.38;99609.28;5032141;28;19963;-58
2021/12/26 08:08:19;;;;;;;;;;;;;;;12.40;92.39;99613.41;5032090;28;19956;-58
2021/12/26 08:10:46;;;;;;;;;;;;;;;12.39;92.33;99606.16;5032268;28;19921;-58
2021/12/26 08:13:12;;;;;;;;;;;;;;;12.40;92.44;99575.03;5032159;28;19964;-58
2021/12/26 08:15:40;;;;;;;;;;;;;;;12.37;92.67;99575.66;5032256;28;20446;-58
2021/12/26 08:18:06;;;;;;;;;;;;;;;12.37;92.83;99570.06;5039677;28;19960;-58
2021/12/26 08:20:33;;;;;;;;;;;;;;;12.39;92.88;99573.41;5030681;28;20011;-58
2021/12/26 08:23:01;;;;;;;;;;;;;;;12.40;92.87;99569.44;5032112;28;19963;-58
2021/12/26 08:25:28;;;;;;;;;;;;;;;12.41;92.88;99571.13;5032032;28;19921;-58
2021/12/26 08:27:55;;;;;;;;;;;;;;;12.44;92.96;99586.44;5031938;28;19979;-58
2021/12/26 08:30:22;;;;;;;;;;;;;;;12.45;93.10;99569.34;5031961;28;20019;-58
2021/12/26 08:32:52;;;;;;;;;;;;;;;12.49;93.05;99603.94;5031766;28;19925;-57
2021/12/26 08:35:19;;;;;;;;;;;;;;;12.48;93.13;99588.31;5032371;28;20024;-57
2021/12/26 08:37:47;;;;;;;;;;;;;;;12.51;93.10;99590.47;5031779;28;19968;-57
2021/12/26 08:40:14;;;;;;;;;;;;;;;12.54;93.01;99572.19;5031725;28;20492;-57
2021/12/26 08:42:41;;;;;;;;;;;;;;;12.59;93.04;99591.69;5031770;28;19960;-58
2021/12/26 08:45:10;;;;;;;;;;;;;;;12.62;93.20;99587.44;5032098;28;19952;-56
2021/12/26 08:47:37;;;;;;;;;;;;;;;12.67;93.11;99567.69;5043609;28;20373;-58
2021/12/26 08:50:04;;;;;;;;;;;;;;;12.70;93.22;99572.63;5031783;28;20020;-58
2021/12/26 08:52:32;;;;;;;;;;;;;;;12.75;93.14;99606.13;5032516;28;20353;-57
2021/12/26 08:54:58;;;;;;;;;;;;;;;12.77;93.13;99557.03;5031402;28;20015;-58
2021/12/26 08:57:25;;;;;;;;;;;;;;;12.81;93.22;99546.84;5031709;28;19927;-58
2021/12/26 08:59:52;;;;;;;;;;;;;;;12.84;93.25;99567.78;5047032;28;20011;-57
2021/12/26 09:02:18;;;;;;;;;;;;;;;12.89;93.40;99587.28;5049006;28;19960;-56
2021/12/26 09:04:45;;;;;;;;;;;;;;;12.93;93.28;99607.91;5031434;28;20027;-56
2021/12/26 09:07:12;;;;;;;;;;;;;;;12.97;93.26;99555.69;5031487;28;20384;-57
2021/12/26 09:09:39;;;;;;;;;;;;;;;12.99;93.32;99595.44;5031823;28;20007;-57
2021/12/26 09:12:06;;;;;;;;;;;;;;;13.03;93.30;99568.41;5031383;28;19951;-56
2021/12/26 09:14:33;;;;;;;;;;;;;;;13.07;93.33;99599.44;5031605;28;20389;-56
2021/12/26 09:16:59;;;;;;;;;;;;;;;13.12;93.29;99573.22;5031028;28;20028;-55
2021/12/26 09:19:28;;;;;;;;;;;;;;;13.15;93.28;99583.81;5047286;28;19920;-57
2021/12/26 09:21:59;;;;;;;;;;;;;;;13.20;93.19;99609.72;5051139;28;20399;-57
2021/12/26 09:24:26;;;;;;;;;;;;;;;13.24;93.21;99598.72;5051577;28;19947;-56
2021/12/26 09:26:52;;;;;;;;;;;;;;;13.28;93.24;99599.75;5040055;28;20033;-55
2021/12/26 09:29:19;;;;;;;;;;;;;;;13.31;92.98;99595.47;5032463;28;20048;-52
2021/12/26 09:31:46;;;;;;;;;;;;;;;13.35;93.02;99600.09;5034926;28;19921;-55
2021/12/26 09:34:13;;;;;;;;;;;;;;;13.38;93.04;99610.69;5039527;28;20352;-55
2021/12/26 09:36:41;;;;;;;;;;;;;;;13.40;93.18;99621.56;5054665;28;20403;-54
2021/12/26 09:39:07;;;;;;;;;;;;;;;13.42;93.05;99617.28;5036850;28;19960;-55
2021/12/26 09:41:35;;;;;;;;;;;;;;;13.45;93.20;99618.63;5035014;28;20011;-55
2021/12/26 09:44:01;;;;;;;;;;;;;;;13.48;93.03;99632.84;5050231;28;19970;-55
2021/12/26 09:46:32;;;;;;;;;;;;;;;13.52;93.08;99627.41;5054690;28;20241;-54
2021/12/26 09:48:59;;;;;;;;;;;;;;;13.54;92.99;99630.72;5048799;28;20276;-54
2021/12/26 09:51:26;;;;;;;;;;;;;;;13.56;93.20;99633.19;5034504;28;19970;-55
2021/12/26 09:53:53;;;;;;;;;;;;;;;13.60;93.20;99628.59;5034522;28;20007;-55
2021/12/26 09:56:20;;;;;;;;;;;;;;;13.61;93.15;99630.25;5034625;28;19964;-56
2021/12/26 09:58:56;;;;;;;;;;;;;;;13.66;93.19;99633.72;5039138;28;20011;-56
2021/12/26 10:01:31;;;;;;;;;;;;;;;13.69;93.25;99621.03;5039011;28;19921;-56
2021/12/26 10:04:17;;;;;;;;;;;;;;;13.73;93.28;99628.47;5042879;28;20333;-55
2021/12/26 10:06:44;;;;;;;;;;;;;;;13.78;93.18;99623.88;5053988;28;20011;-57
2021/12/26 10:09:11;;;;;;;;;;;;;;;13.81;93.23;99626.03;5036227;28;20023;-56
2021/12/26 10:11:38;;;;;;;;;;;;;;;13.84;93.16;99631.81;5034540;28;20324;-55
2021/12/26 10:14:06;;;;;;;;;;;;;;;13.88;93.17;99635.66;5034077;28;19929;-56
2021/12/26 10:16:37;;;;;;;;;;;;;;;13.94;93.30;99639.13;5034308;28;19928;-55
2021/12/26 10:19:05;;;;;;;;;;;;;;;13.94;93.29;99639.94;5047001;28;19946;-55
2021/12/26 10:21:36;;;;;;;;;;;;;;;13.98;93.10;99649.38;5050320;28;19964;-56
2021/12/26 10:24:07;;;;;;;;;;;;;;;14.02;93.27;99640.28;5034015;28;19920;-55
2021/12/26 10:26:35;;;;;;;;;;;;;;;14.06;93.13;99647.75;5034029;28;20451;-57
2021/12/26 10:29:08;;;;;;;;;;;;;;;14.10;93.29;99647.94;5034034;28;19925;-55
2021/12/26 10:31:35;;;;;;;;;;;;;;;14.18;93.10;99638.69;5033780;28;19921;-54
2021/12/26 10:34:02;;;;;;;;;;;;;;;14.23;93.17;99646.97;5034657;28;19943;-56
2021/12/26 10:36:30;;;;;;;;;;;;;;;14.29;93.29;99656.91;5034229;28;19921;-58
2021/12/26 10:39:14;;;;;;;;;;;;;;;14.30;93.26;99644.50;5034188;28;20517;-56
2021/12/26 10:41:42;;;;;;;;;;;;;;;14.32;93.12;99647.78;5032716;28;19925;-57
2021/12/26 10:44:23;;;;;;;;;;;;;;;14.34;93.01;99653.09;5034180;28;20368;-58
2021/12/26 10:46:50;;;;;;;;;;;;;;;14.36;93.19;99656.41;5033696;28;20055;-57
2021/12/26 10:49:24;;;;;;;;;;;;;;;14.39;93.38;99673.44;5044110;28;19921;-56
2021/12/26 10:51:51;;;;;;;;;;;;;;;14.46;93.33;99678.53;5044474;28;20321;-55
2021/12/26 10:54:19;;;;;;;;;;;;;;;14.53;93.20;99672.47;5053529;28;20019;-55
2021/12/26 10:57:10;;;;;;;;;;;;;;;14.55;93.30;99676.63;5039764;28;20003;-53
2021/12/26 11:00:04;;;;;;;;;;;;;;;14.60;93.30;99676.47;5033576;28;19924;-56
2021/12/26 11:02:40;;;;;;;;;;;;;;;14.64;93.28;99679.44;5033272;28;19950;-56
2021/12/26 11:05:08;;;;;;;;;;;;;;;14.69;93.26;99668.03;5033209;28;19975;-56
2021/12/26 11:07:43;;;;;;;;;;;;;;;14.73;93.18;99677.44;5033525;28;19994;-57
2021/12/26 11:10:15;;;;;;;;;;;;;;;14.76;92.97;99657.13;5044023;28;20004;-56
2021/12/26 11:12:45;;;;;;;;;;;;;;;14.79;93.20;99662.09;5053340;28;19943;-56
2021/12/26 11:15:12;;;;;;;;;;;;;;;14.81;92.91;99668.22;5051641;28;20023;-56
2021/12/26 11:17:43;;;;;;;;;;;;;;;14.84;93.04;99670.38;5033047;28;20019;-55
2021/12/26 11:20:16;;;;;;;;;;;;;;;14.85;93.09;99652.34;5032824;28;19979;-56
2021/12/26 11:22:43;;;;;;;;;;;;;;;14.84;93.06;99650.69;5033066;28;19921;-56
2021/12/26 11:25:10;;;;;;;;;;;;;;;14.85;93.03;99648.72;5033364;28;20020;-56
2021/12/26 11:27:36;;;;;;;;;;;;;;;14.86;93.03;99653.97;5032574;28;19996;-56
2021/12/26 11:30:05;;;;;;;;;;;;;;;14.87;93.07;99655.66;5032815;28;19993;-57
2021/12/26 11:32:32;;;;;;;;;;;;;;;14.86;92.90;99636.28;5032917;28;20043;-57
2021/12/26 11:35:00;;;;;;;;;;;;;;;14.84;92.89;99649.88;5032667;28;20039;-56
2021/12/26 11:37:27;;;;;;;;;;;;;;;14.84;92.88;99631.03;5032699;28;20008;-55
2021/12/26 11:39:55;;;;;;;;;;;;;;;14.85;93.17;99641.09;5032598;28;20009;-55
2021/12/26 11:42:34;;;;;;;;;;;;;;;14.89;92.68;99635.63;5032870;28;20019;-56
2021/12/26 11:45:04;;;;;;;;;;;;;;;14.87;93.01;99635.97;5032879;28;19960;-55
2021/12/26 11:47:39;;;;;;;;;;;;;;;14.88;93.07;99634.00;5032432;28;19924;-56
2021/12/26 11:50:24;;;;;;;;;;;;;;;14.88;92.97;99629.19;5032106;28;20370;-54
2021/12/26 11:52:51;;;;;;;;;;;;;;;14.91;92.91;99638.94;5032234;28;20008;-56
2021/12/26 11:55:23;;;;;;;;;;;;;;;14.90;92.85;99629.66;5032406;28;20011;-57
2021/12/26 11:58:08;;;;;;;;;;;;;;;14.90;93.16;99615.59;5032638;28;19921;-56
2021/12/26 12:00:38;;;;;;;;;;;;;;;14.91;93.11;99625.72;5032828;28;20016;-56
2021/12/26 12:03:25;;;;;;;;;;;;;;;14.92;93.19;99618.94;5032148;28;20048;-56
2021/12/26 12:05:54;;;;;;;;;;;;;;;14.95;93.20;99613.81;5031991;28;19921;-56
2021/12/26 12:08:30;;;;;;;;;;;;;;;14.95;93.20;99623.06;5032163;28;19921;-55
2021/12/26 12:11:08;;;;;;;;;;;;;;;14.97;93.31;99623.53;5045222;28;19970;-55
2021/12/26 12:13:42;;;;;;;;;;;;;;;14.97;93.23;99614.28;5051905;28;20019;-55
2021/12/26 12:16:13;;;;;;;;;;;;;;;14.96;93.05;99609.84;5035361;28;19921;-56
2021/12/26 12:18:46;;;;;;;;;;;;;;;14.98;93.24;99601.91;5031816;28;19921;-55
2021/12/26 12:21:18;;;;;;;;;;;;;;;14.98;93.32;99605.53;5051042;28;20008;-54
2021/12/26 12:24:11;;;;;;;;;;;;;;;15.00;93.41;99605.19;5031845;28;20031;-56
2021/12/26 12:26:38;;;;;;;;;;;;;;;15.01;93.35;99607.69;5032234;28;19982;-57
2021/12/26 12:29:05;;;;;;;;;;;;;;;15.03;93.45;99608.16;5031802;28;20019;-56
2021/12/26 12:31:33;;;;;;;;;;;;;;;15.03;93.09;99604.53;5031845;28;20012;-56
2021/12/26 12:34:04;;;;;;;;;;;;;;;15.02;93.10;99603.72;5032419;28;19920;-54
2021/12/26 12:36:32;;;;;;;;;;;;;;;15.03;93.32;99596.09;5032336;28;19921;-55
2021/12/26 12:39:30;;;;;;;;;;;;;;;15.03;92.95;99601.72;5032128;28;20003;-57
2021/12/26 12:41:58;;;;;;;;;;;;;;;15.01;93.24;99602.06;5031100;28;20015;-55
2021/12/26 12:44:28;;;;;;;;;;;;;;;15.02;93.16;99600.06;5031860;28;19921;-56
2021/12/26 12:46:54;;;;;;;;;;;;;;;14.99;92.93;99606.34;5031767;28;19921;-55
2021/12/26 12:49:39;;;;;;;;;;;;;;;14.98;93.23;99593.47;5031776;28;19987;-54
2021/12/26 12:52:06;;;;;;;;;;;;;;;14.98;93.01;99590.66;5032072;28;19979;-54
2021/12/26 12:54:33;;;;;;;;;;;;;;;14.97;93.22;99580.56;5031862;28;20023;-55
2021/12/26 12:57:01;;;;;;;;;;;;;;;14.97;93.11;99587.00;5031999;28;20016;-55
2021/12/26 12:59:30;;;;;;;;;;;;;;;14.97;93.17;99587.00;5031747;28;19952;-56
2021/12/26 13:01:56;;;;;;;;;;;;;;;14.98;93.11;99588.66;5031651;28;19925;-55